Time;durP1;ratioP1;P1;durP2;ratioP2;P2;SDS_P1;SDS_P2;PMS_P1;PMS_P2;Temp;Humidity;BMP_temperature;BMP_pressure;BME280_temperature;BME280_humidity;BME280_pressure;Samples;Min_cycle;Max_cycle;Signal;HPM_P1;HPM_P2
2023/12/26 00:00:19;;;;;;;13.40;7.38;;;;;;;9.19;54.13;99764.22;3128493;28;20057;-68
2023/12/26 00:01:51;;;;;;;16.17;7.65;;;;;;;9.17;54.12;99766.03;3128483;28;20283;-68
2023/12/26 00:03:22;;;;;;;18.65;7.22;;;;;;;9.17;54.28;99773.84;3128153;28;20127;-68
2023/12/26 00:04:54;;;;;;;14.32;6.82;;;;;;;9.17;54.11;99766.03;3128654;28;20183;-68
2023/12/26 00:06:24;;;;;;;18.52;7.25;;;;;;;9.16;54.40;99770.41;3128409;28;20079;-68
2023/12/26 00:07:56;;;;;;;21.33;7.25;;;;;;;9.16;54.05;99778.19;3128002;28;20113;-68
2023/12/26 00:09:29;;;;;;;14.35;6.70;;;;;;;9.16;54.10;99785.97;3128534;28;20107;-68
2023/12/26 00:11:01;;;;;;;16.08;7.45;;;;;;;9.13;54.25;99780.06;3128563;28;20173;-68
2023/12/26 00:12:33;;;;;;;17.67;8.45;;;;;;;9.07;54.51;99784.59;3128542;28;20287;-68
2023/12/26 00:14:04;;;;;;;26.13;9.00;;;;;;;9.04;54.28;99783.88;3128495;28;20122;-68
2023/12/26 00:15:36;;;;;;;20.67;8.30;;;;;;;8.99;54.75;99778.88;3128632;28;20070;-68
2023/12/26 00:17:08;;;;;;;17.33;7.95;;;;;;;8.93;54.96;99775.66;3128429;28;20214;-68
2023/12/26 00:18:38;;;;;;;26.10;9.32;;;;;;;8.90;55.04;99779.19;3128374;28;20053;-68
2023/12/26 00:20:11;;;;;;;20.42;8.50;;;;;;;8.87;55.21;99782.78;3128371;28;20317;-68
2023/12/26 00:21:42;;;;;;;24.45;9.27;;;;;;;8.86;55.27;99783.69;3128007;28;20051;-68
2023/12/26 00:23:14;;;;;;;21.17;8.95;;;;;;;8.84;55.39;99780.31;3128433;28;20092;-68
2023/12/26 00:24:48;;;;;;;20.45;9.20;;;;;;;8.83;55.40;99785.56;3128328;28;20083;-68
2023/12/26 00:26:20;;;;;;;24.00;9.75;;;;;;;8.77;55.55;99783.19;3128141;28;20057;-68
2023/12/26 00:27:52;;;;;;;21.23;9.25;;;;;;;8.73;55.68;99779.03;3128217;28;20569;-68
2023/12/26 00:29:25;;;;;;;21.45;10.20;;;;;;;8.16;55.81;99696.31;3127804;28;20521;-68
2023/12/26 00:30:56;;;;;;;25.80;10.02;;;;;;;8.58;55.96;99781.28;3128219;28;20053;-68
2023/12/26 00:32:28;;;;;;;25.80;10.45;;;;;;;8.56;56.16;99782.25;3128034;28;20072;-68
2023/12/26 00:33:59;;;;;;;22.98;10.57;;;;;;;8.53;56.29;99784.97;3127936;28;20612;-67
2023/12/26 00:35:30;;;;;;;25.90;9.82;;;;;;;8.51;56.38;99786.75;3137004;28;20052;-68
2023/12/26 00:37:01;;;;;;;25.70;10.30;;;;;;;8.46;56.36;99780.88;3128019;28;20056;-68
2023/12/26 00:38:33;;;;;;;28.52;11.90;;;;;;;8.47;56.31;99785.19;3127805;28;20398;-68
2023/12/26 00:40:07;;;;;;;22.33;10.88;;;;;;;8.48;56.39;99784.28;3127939;28;20180;-68
2023/12/26 00:41:39;;;;;;;21.92;10.95;;;;;;;8.45;56.34;99777.44;3127807;28;20056;-66
2023/12/26 00:43:11;;;;;;;26.00;10.80;;;;;;;8.45;56.55;99785.22;3128298;28;20110;-68
2023/12/26 00:44:42;;;;;;;24.35;10.57;;;;;;;8.45;56.57;99790.41;3127948;28;20110;-68
2023/12/26 00:46:14;;;;;;;28.27;10.38;;;;;;;8.43;56.35;99787.91;3128115;28;20167;-68
2023/12/26 00:47:46;;;;;;;33.40;11.73;;;;;;;8.41;56.74;99787.09;3127992;28;20052;-68
2023/12/26 00:49:17;;;;;;;23.60;10.15;;;;;;;8.39;56.54;99791.47;3128025;28;20522;-67
2023/12/26 00:50:49;;;;;;;28.23;10.88;;;;;;;8.39;56.77;99788.88;3127799;28;20148;-67
2023/12/26 00:52:19;;;;;;;28.35;11.50;;;;;;;8.37;56.71;99785.50;3127941;28;20581;-68
2023/12/26 00:53:51;;;;;;;26.55;10.48;;;;;;;8.35;56.83;99794.22;3128031;28;20208;-68
2023/12/26 00:55:25;;;;;;;27.30;11.05;;;;;;;8.36;56.92;99795.91;3127446;28;20052;-67
2023/12/26 00:56:57;;;;;;;28.55;10.48;;;;;;;8.33;56.86;99793.44;3128038;28;20049;-67
2023/12/26 00:58:28;;;;;;;26.48;11.05;;;;;;;8.29;56.88;99800.47;3127795;28;20218;-68
2023/12/26 01:00:00;;;;;;;33.03;13.50;;;;;;;8.26;56.95;99804.94;3127644;28;20675;-67
2023/12/26 01:01:31;;;;;;;36.47;15.38;;;;;;;8.19;57.23;99801.69;3127662;28;20041;-68
2023/12/26 01:03:03;;;;;;;39.38;16.98;;;;;;;8.10;57.13;99799.44;3127046;28;20113;-66
2023/12/26 01:04:34;;;;;;;42.42;17.65;;;;;;;8.12;57.36;99802.81;3127848;28;20067;-68
2023/12/26 01:06:06;;;;;;;64.57;27.02;;;;;;;8.09;57.36;99805.53;3127761;28;20103;-68
2023/12/26 01:07:37;;;;;;;65.13;26.73;;;;;;;8.06;57.45;99805.63;3127434;28;20125;-67
2023/12/26 01:09:09;;;;;;;49.22;22.08;;;;;;;8.05;57.46;99809.13;3127821;28;20057;-67
2023/12/26 01:10:42;;;;;;;47.63;21.58;;;;;;;8.07;57.41;99809.91;3127598;28;20057;-67
2023/12/26 01:12:14;;;;;;;35.10;17.33;;;;;;;8.05;57.56;99807.38;3127478;28;20080;-67
2023/12/26 01:13:46;;;;;;;40.17;17.00;;;;;;;8.02;57.54;99807.50;3127641;28;20311;-67
2023/12/26 01:15:17;;;;;;;42.22;16.90;;;;;;;8.01;57.53;99808.38;3127645;28;20065;-67
2023/12/26 01:16:50;;;;;;;35.60;16.00;;;;;;;8.00;57.51;99805.84;3127668;28;20187;-67
2023/12/26 01:18:20;;;;;;;39.35;16.95;;;;;;;7.93;57.80;99805.22;3127734;28;20057;-67
2023/12/26 01:19:52;;;;;;;62.50;23.58;;;;;;;7.89;57.96;99811.38;3127555;28;20134;-67
2023/12/26 01:21:23;;;;;;;49.78;21.65;;;;;;;7.84;58.10;99802.91;3127420;28;20517;-67
2023/12/26 01:22:55;;;;;;;43.63;19.17;;;;;;;7.84;58.08;99806.38;3127458;28;20183;-67
2023/12/26 01:24:26;;;;;;;41.50;17.17;;;;;;;7.86;58.36;99816.69;3127474;28;20053;-67
2023/12/26 01:25:59;;;;;;;51.35;19.08;;;;;;;7.88;58.21;99812.28;3127648;28;20973;-67
2023/12/26 01:27:31;;;;;;;45.63;16.85;;;;;;;7.85;58.24;99818.44;3127512;28;20059;-67
2023/12/26 01:29:04;;;;;;;50.67;19.23;;;;;;;7.85;58.34;99809.81;3127587;28;20049;-66
2023/12/26 01:30:38;;;;;;;;;;;;;;;7.71;58.29;99808.50;3130667;28;20049;-66
2023/12/26 01:32:10;;;;;;;37.88;16.73;;;;;;;7.75;58.34;99809.28;3136908;28;19932;-67
2023/12/26 01:33:41;;;;;;;34.53;14.65;;;;;;;7.80;58.34;99801.34;3127347;28;20049;-67
2023/12/26 01:35:13;;;;;;;23.55;10.43;;;;;;;7.83;58.44;99816.78;3127340;28;20056;-68
2023/12/26 01:36:44;;;;;;;26.27;11.07;;;;;;;7.86;58.21;99806.31;3127512;28;20485;-67
2023/12/26 01:38:16;;;;;;;32.28;12.07;;;;;;;7.88;58.20;99807.94;3127579;28;20276;-68
2023/12/26 01:39:46;;;;;;;25.42;11.43;;;;;;;7.88;58.19;99805.34;3127406;28;20105;-66
2023/12/26 01:41:20;;;;;;;22.90;9.88;;;;;;;7.90;58.08;99807.91;3127327;28;20536;-68
2023/12/26 01:42:51;;;;;;;23.55;10.40;;;;;;;7.87;58.18;99803.69;3127364;28;20053;-68
2023/12/26 01:44:23;;;;;;;26.40;10.10;;;;;;;7.89;58.08;99803.59;3127218;28;20636;-67
2023/12/26 01:45:57;;;;;;;24.02;9.52;;;;;;;7.85;57.98;99799.44;3127577;28;20305;-67
2023/12/26 01:47:29;;;;;;;29.27;11.48;;;;;;;7.87;58.14;99803.69;3127335;28;20556;-68
2023/12/26 01:49:00;;;;;;;23.35;10.18;;;;;;;7.87;58.22;99803.69;3127043;28;20344;-68
2023/12/26 01:50:34;;;;;;;30.73;10.80;;;;;;;7.85;58.09;99797.69;3127242;28;20479;-67
2023/12/26 01:52:08;;;;;;;30.45;11.70;;;;;;;7.86;58.21;99804.56;3127546;28;20052;-67
2023/12/26 01:53:40;;;;;;;25.73;11.57;;;;;;;7.83;58.34;99799.47;3127081;28;20548;-68
2023/12/26 01:55:14;;;;;;;24.45;9.68;;;;;;;7.83;58.41;99811.59;3127166;28;20122;-67
2023/12/26 01:56:48;;;;;;;26.73;9.23;;;;;;;7.78;58.15;99796.22;3127005;28;20849;-67
2023/12/26 01:58:20;;;;;;;22.13;9.05;;;;;;;7.80;58.25;99797.00;3127026;28;20053;-67
2023/12/26 01:59:51;;;;;;;24.67;11.60;;;;;;;7.80;58.34;99807.34;3127229;28;20103;-67
2023/12/26 02:01:23;;;;;;;23.08;10.80;;;;;;;7.80;58.28;99798.75;3127035;28;20398;-66
2023/12/26 02:02:56;;;;;;;28.17;11.32;;;;;;;7.74;58.36;99792.00;3127313;28;20394;-66
2023/12/26 02:04:27;;;;;;;23.60;10.68;;;;;;;7.77;58.48;99797.09;3127087;28;20585;-67
2023/12/26 02:06:01;;;;;;;31.52;11.90;;;;;;;7.77;58.68;99797.09;3127043;28;20057;-67
2023/12/26 02:07:31;;;;;;;27.52;11.00;;;;;;;7.75;58.63;99793.72;3126898;28;20071;-66
2023/12/26 02:09:04;;;;;;;20.70;10.07;;;;;;;7.75;58.82;99802.34;3127062;28;20094;-66
2023/12/26 02:10:35;;;;;;;27.13;11.63;;;;;;;7.71;58.67;99797.31;3127144;28;20141;-66
2023/12/26 02:12:09;;;;;;;27.88;11.77;;;;;;;7.71;58.90;99798.13;3127149;28;20319;-66
2023/12/26 02:13:39;;;;;;;25.23;10.73;;;;;;;7.68;59.04;99806.03;3126982;28;20049;-66
2023/12/26 02:15:13;;;;;;;23.10;9.88;;;;;;;7.66;59.01;99800.06;3126231;28;20076;-67
2023/12/26 02:16:47;;;;;;;28.30;10.05;;;;;;;7.62;59.11;99802.78;3127204;28;20160;-67
2023/12/26 02:18:20;;;;;;;24.13;11.52;;;;;;;7.58;59.21;99796.03;3127085;28;20183;-67
2023/12/26 02:19:52;;;;;;;23.17;10.98;;;;;;;7.56;59.43;99797.81;3127096;28;20049;-67
2023/12/26 02:21:23;;;;;;;29.67;10.02;;;;;;;7.55;59.36;99794.38;3126856;28;20087;-67
2023/12/26 02:22:54;;;;;;;21.83;9.68;;;;;;;7.17;59.31;99743.81;3126845;28;20760;-66
2023/12/26 02:24:28;;;;;;;24.83;11.23;;;;;;;7.55;59.45;99802.16;3127162;28;20056;-67
2023/12/26 02:26:00;;;;;;;;;;;;;;;7.37;59.47;99806.19;3127481;28;20057;-66
2023/12/26 02:27:34;;;;;;;27.27;9.30;;;;;;;7.38;59.68;99815.66;3130016;28;20525;-67
2023/12/26 02:29:06;;;;;;;22.55;10.23;;;;;;;7.35;59.95;99817.50;3126767;28;20085;-67
2023/12/26 02:30:39;;;;;;;23.75;11.30;;;;;;;7.28;59.93;99809.91;3126877;28;20132;-67
2023/12/26 02:32:12;;;;;;;24.13;9.65;;;;;;;7.28;59.99;99819.44;3126753;28;20102;-67
2023/12/26 02:33:45;;;;;;;22.50;9.20;;;;;;;7.22;59.97;99815.28;3126814;28;20167;-67
2023/12/26 02:35:17;;;;;;;29.75;9.98;;;;;;;7.21;60.04;99818.75;3126693;28;20052;-67
2023/12/26 02:36:50;;;;;;;26.55;9.82;;;;;;;7.18;60.08;99829.22;3126928;28;20251;-67
2023/12/26 02:38:21;;;;;;;22.85;9.07;;;;;;;7.13;60.18;99822.47;3127030;28;20064;-67
2023/12/26 02:39:54;;;;;;;18.20;8.55;;;;;;;7.10;60.56;99825.16;3126891;28;20057;-67
2023/12/26 02:41:25;;;;;;;20.42;8.85;;;;;;;7.06;60.47;99827.84;3126863;28;20111;-67
2023/12/26 02:42:57;;;;;;;19.17;8.13;;;;;;;7.07;60.55;99826.97;3114560;28;20104;-67
2023/12/26 02:44:28;;;;;;;19.20;7.68;;;;;;;7.07;60.50;99826.97;3126060;28;20049;-67
2023/12/26 02:46:00;;;;;;;20.45;9.32;;;;;;;7.11;60.33;99827.72;3126957;28;20109;-67
2023/12/26 02:47:31;;;;;;;18.38;7.97;;;;;;;7.14;60.28;99829.38;3126722;28;20057;-67
2023/12/26 02:49:02;;;;;;;21.33;8.70;;;;;;;7.16;60.36;99835.31;3126572;28;20221;-67
2023/12/26 02:50:33;;;;;;;20.70;8.65;;;;;;;7.17;60.27;99842.22;3126907;28;20139;-67
2023/12/26 02:52:05;;;;;;;18.50;7.97;;;;;;;7.18;60.23;99841.31;3126198;28;20167;-67
2023/12/26 02:53:36;;;;;;;20.15;8.65;;;;;;;7.16;60.24;99840.50;3126506;28;20083;-67
2023/12/26 02:55:11;;;;;;;22.17;8.63;;;;;;;7.17;60.20;99843.06;3126780;28;20053;-67
2023/12/26 02:56:42;;;;;;;19.10;8.50;;;;;;;7.14;60.34;99847.50;3126768;28;20049;-67
2023/12/26 02:58:13;;;;;;;19.35;9.50;;;;;;;7.12;60.46;99844.09;3126529;28;20230;-67
2023/12/26 02:59:44;;;;;;;21.17;9.30;;;;;;;7.09;60.51;99841.59;3126687;28;20057;-66
2023/12/26 03:01:16;;;;;;;21.77;8.43;;;;;;;7.06;60.55;99842.53;3126327;28;20151;-68
2023/12/26 03:02:47;;;;;;;24.55;9.18;;;;;;;7.00;60.61;99843.56;3126721;28;20045;-67
2023/12/26 03:04:19;;;;;;;22.25;9.05;;;;;;;6.96;61.00;99844.56;3126848;28;20091;-67
2023/12/26 03:05:50;;;;;;;23.55;8.93;;;;;;;6.94;60.97;99842.91;3126400;28;20049;-67
2023/12/26 03:07:22;;;;;;;25.58;9.90;;;;;;;6.94;61.04;99845.50;3126616;28;20552;-68
2023/12/26 03:08:53;;;;;;;24.10;9.52;;;;;;;6.95;61.09;99855.81;3128566;28;20282;-68
2023/12/26 03:10:26;;;;;;;22.10;9.40;;;;;;;6.94;61.05;99855.84;3126665;28;20438;-67
2023/12/26 03:11:57;;;;;;;21.98;9.90;;;;;;;6.90;61.15;99854.25;3126632;28;20155;-67
2023/12/26 03:13:29;;;;;;;21.75;9.05;;;;;;;6.91;61.07;99861.97;3126290;28;20053;-67
2023/12/26 03:15:00;;;;;;;20.95;8.77;;;;;;;6.95;61.18;99868.78;3126642;28;20282;-67
2023/12/26 03:16:32;;;;;;;24.27;9.00;;;;;;;6.96;61.09;99870.44;3126847;28;20545;-68
2023/12/26 03:18:03;;;;;;;24.45;9.80;;;;;;;6.96;61.12;99869.59;3126546;28;20446;-67
2023/12/26 03:19:35;;;;;;;20.90;9.75;;;;;;;6.95;60.84;99868.78;3126767;28;20083;-67
2023/12/26 03:21:06;;;;;;;20.17;9.13;;;;;;;6.92;60.98;99863.69;3126224;28;20053;-66
2023/12/26 03:22:39;;;;;;;20.73;9.60;;;;;;;6.82;61.29;99865.66;3126440;28;20446;-67
2023/12/26 03:24:09;;;;;;;22.40;9.85;;;;;;;6.73;61.49;99863.34;3135350;28;20545;-66
2023/12/26 03:25:43;;;;;;;27.80;8.98;;;;;;;6.29;61.53;99800.75;3126642;28;20103;-68
2023/12/26 03:27:15;;;;;;;21.52;9.77;;;;;;;6.64;61.83;99858.44;3117857;28;20053;-67
2023/12/26 03:28:47;;;;;;;22.13;10.05;;;;;;;6.56;61.84;99856.03;3128734;28;20052;-67
2023/12/26 03:30:17;;;;;;;19.90;10.05;;;;;;;6.58;61.88;99862.03;3128866;28;20053;-66
2023/12/26 03:31:50;;;;;;;25.33;11.13;;;;;;;6.54;62.01;99868.19;3128854;28;20498;-67
2023/12/26 03:33:21;;;;;;;24.77;10.63;;;;;;;6.53;62.13;99863.03;3128690;28;20052;-67
2023/12/26 03:34:53;;;;;;;20.48;10.27;;;;;;;6.54;61.93;99875.13;3128744;28;20057;-67
2023/12/26 03:36:24;;;;;;;21.38;10.05;;;;;;;6.55;62.00;99877.63;3128675;28;20052;-68
2023/12/26 03:37:56;;;;;;;24.40;9.73;;;;;;;6.56;61.87;99881.06;3128828;28;20437;-67
2023/12/26 03:39:27;;;;;;;23.80;10.27;;;;;;;6.57;61.70;99885.38;3128564;28;20143;-67
2023/12/26 03:41:01;;;;;;;22.27;9.98;;;;;;;6.61;61.70;99894.75;3128692;28;20190;-67
2023/12/26 03:42:32;;;;;;;22.83;9.60;;;;;;;6.60;61.57;99899.06;3128865;28;20148;-66
2023/12/26 03:44:04;;;;;;;22.27;10.15;;;;;;;6.61;61.67;99897.31;3128594;28;20254;-66
2023/12/26 03:45:35;;;;;;;24.27;10.32;;;;;;;6.59;61.72;99893.94;3128577;28;20076;-68
2023/12/26 03:47:07;;;;;;;21.02;9.88;;;;;;;6.59;61.46;99891.34;3128798;28;20061;-68
2023/12/26 03:48:38;;;;;;;23.48;9.88;;;;;;;6.57;61.51;99891.41;3128352;28;20049;-68
2023/12/26 03:50:10;;;;;;;30.08;10.48;;;;;;;6.04;61.67;99810.09;3128545;28;20539;-68
2023/12/26 03:51:41;;;;;;;27.45;9.85;;;;;;;6.39;62.04;99886.72;3128514;28;20505;-68
2023/12/26 03:53:13;;;;;;;29.15;11.05;;;;;;;6.35;62.27;99888.53;3128749;28;20087;-69
2023/12/26 03:54:44;;;;;;;23.02;10.45;;;;;;;6.28;62.47;99879.25;3128897;28;20056;-66
2023/12/26 03:56:18;;;;;;;24.90;10.75;;;;;;;6.35;62.38;99892.84;3128714;28;20053;-68
2023/12/26 03:57:48;;;;;;;;;;;;;;;6.21;62.52;99895.81;3129123;28;20057;-67
2023/12/26 03:59:20;;;;;;;21.95;9.10;;;;;;;6.27;62.58;99894.78;3128666;28;19931;-66
2023/12/26 04:00:51;;;;;;;29.15;10.13;;;;;;;6.32;62.49;99893.78;3128433;28;20472;-67
2023/12/26 04:02:23;;;;;;;25.27;10.52;;;;;;;6.36;62.43;99900.59;3128272;28;20049;-66
2023/12/26 04:03:54;;;;;;;21.77;9.98;;;;;;;6.37;62.49;99891.06;3128656;28;20080;-68
2023/12/26 04:05:26;;;;;;;23.23;11.10;;;;;;;6.39;62.46;99894.47;3128407;28;20057;-66
2023/12/26 04:06:57;;;;;;;25.58;11.05;;;;;;;6.40;62.51;99891.00;3128039;28;20190;-66
2023/12/26 04:08:29;;;;;;;27.33;11.02;;;;;;;6.38;62.56;99887.59;3128242;28;20118;-66
2023/12/26 04:10:00;;;;;;;21.30;10.90;;;;;;;6.37;62.70;99896.25;3128325;28;20130;-66
2023/12/26 04:11:33;;;;;;;23.95;10.50;;;;;;;6.40;62.69;99896.16;3128347;28;20680;-66
2023/12/26 04:13:04;;;;;;;24.55;11.07;;;;;;;6.40;62.68;99893.59;3128208;28;20048;-68
2023/12/26 04:14:36;;;;;;;23.65;10.60;;;;;;;6.39;62.79;99897.06;3128455;28;20085;-67
2023/12/26 04:16:07;;;;;;;23.58;10.98;;;;;;;6.41;62.57;99900.44;3128371;28;20048;-68
2023/12/26 04:17:39;;;;;;;22.80;10.52;;;;;;;6.43;62.68;99890.06;3128336;28;20068;-67
2023/12/26 04:19:10;;;;;;;22.73;10.55;;;;;;;6.42;62.76;99894.41;3129478;28;20061;-67
2023/12/26 04:20:42;;;;;;;25.90;10.63;;;;;;;6.42;62.78;99893.53;3139306;28;20052;-67
2023/12/26 04:22:12;;;;;;;27.30;11.02;;;;;;;6.43;62.71;99896.09;3128228;28;20224;-67
2023/12/26 04:23:44;;;;;;;25.35;10.60;;;;;;;6.43;62.97;99896.09;3128380;28;20052;-68
2023/12/26 04:25:17;;;;;;;26.60;11.30;;;;;;;6.44;63.00;99899.53;3128306;28;20064;-68
2023/12/26 04:26:51;;;;;;;23.63;11.05;;;;;;;6.43;63.02;99896.09;3128222;28;20056;-68
2023/12/26 04:28:22;;;;;;;23.25;10.63;;;;;;;6.42;62.96;99902.16;3128059;28;20063;-66
2023/12/26 04:29:54;;;;;;;28.58;12.20;;;;;;;6.43;62.91;99903.84;3128086;28;20107;-66
2023/12/26 04:31:25;;;;;;;24.52;10.70;;;;;;;6.43;63.02;99905.59;3128018;28;20398;-67
2023/12/26 04:32:57;;;;;;;29.73;10.88;;;;;;;6.43;62.91;99911.63;3127912;28;20045;-66
2023/12/26 04:34:28;;;;;;;25.63;11.35;;;;;;;6.44;63.02;99908.13;3124080;28;20071;-67
2023/12/26 04:36:00;;;;;;;26.35;11.95;;;;;;;6.43;63.10;99921.13;3128169;28;20064;-67
2023/12/26 04:37:32;;;;;;;29.42;11.80;;;;;;;6.43;63.14;99921.97;3127402;28;20052;-67
2023/12/26 04:39:04;;;;;;;24.05;11.88;;;;;;;6.43;63.22;99921.97;3127741;28;20053;-66
2023/12/26 04:40:36;;;;;;;21.17;10.65;;;;;;;6.42;63.16;99924.56;3128009;28;20520;-66
2023/12/26 04:42:08;;;;;;;27.60;11.77;;;;;;;6.41;63.27;99918.56;3128095;28;20449;-67
2023/12/26 04:43:40;;;;;;;28.70;11.73;;;;;;;6.36;63.17;99918.69;3127871;28;20053;-67
2023/12/26 04:45:11;;;;;;;26.75;11.02;;;;;;;6.37;63.33;99922.13;3127677;28;20478;-68
2023/12/26 04:46:43;;;;;;;25.90;10.10;;;;;;;6.36;63.32;99915.25;3128039;28;20088;-67
2023/12/26 04:48:14;;;;;;;25.17;11.10;;;;;;;6.35;63.51;99918.72;3127731;28;20064;-68
2023/12/26 04:49:46;;;;;;;24.92;10.43;;;;;;;6.35;63.56;99922.16;3128174;28;20131;-67
2023/12/26 04:51:18;;;;;;;25.25;11.02;;;;;;;6.35;63.55;99926.47;3128011;28;20195;-67
2023/12/26 04:52:50;;;;;;;24.67;11.77;;;;;;;6.33;63.68;99915.31;3127817;28;20060;-66
2023/12/26 04:54:21;;;;;;;26.40;12.02;;;;;;;6.33;63.57;99925.66;3127747;28;20095;-67
2023/12/26 04:55:53;;;;;;;23.98;10.80;;;;;;;6.33;63.61;99925.66;3127989;28;20048;-67
2023/12/26 04:57:26;;;;;;;24.55;10.52;;;;;;;6.34;63.67;99932.53;3127985;28;20060;-67
2023/12/26 04:58:57;;;;;;;24.55;11.80;;;;;;;6.31;63.70;99928.28;3127786;28;20515;-67
2023/12/26 05:00:28;;;;;;;29.08;12.63;;;;;;;6.31;63.55;99917.94;3127637;28;20291;-66
2023/12/26 05:02:00;;;;;;;25.05;10.95;;;;;;;6.31;63.63;99917.94;3127741;28;20086;-67
2023/12/26 05:03:31;;;;;;;24.60;11.15;;;;;;;6.30;63.72;99920.56;3127898;28;20049;-67
2023/12/26 05:05:03;;;;;;;27.05;11.80;;;;;;;6.29;63.68;99924.03;3127709;28;20053;-67
2023/12/26 05:06:34;;;;;;;27.17;12.57;;;;;;;6.28;63.93;99915.44;3127696;28;20053;-66
2023/12/26 05:08:06;;;;;;;25.48;11.32;;;;;;;6.24;63.86;99918.13;3127598;28;20626;-66
2023/12/26 05:09:37;;;;;;;23.13;11.13;;;;;;;6.27;63.83;99920.63;3127564;28;20529;-65
2023/12/26 05:11:09;;;;;;;22.95;10.75;;;;;;;6.25;63.84;99923.28;3127559;28;20053;-67
2023/12/26 05:12:41;;;;;;;30.83;13.27;;;;;;;6.22;63.93;99919.94;3127572;28;20421;-67
2023/12/26 05:14:13;;;;;;;27.27;12.65;;;;;;;6.23;63.99;99924.22;3116560;28;20292;-67
2023/12/26 05:15:44;;;;;;;22.63;11.00;;;;;;;6.22;63.99;99932.88;3130958;28;20610;-67
2023/12/26 05:17:16;;;;;;;26.75;13.63;;;;;;;5.83;64.04;99879.50;3127807;28;20251;-66
2023/12/26 05:18:47;;;;;;;34.72;14.23;;;;;;;5.41;64.04;99807.31;3120036;28;20200;-67
2023/12/26 05:20:19;;;;;;;36.47;14.15;;;;;;;6.17;64.24;99930.38;3127686;28;20728;-67
2023/12/26 05:21:52;;;;;;;26.90;13.68;;;;;;;6.19;64.21;99936.38;3127312;28;20059;-66
2023/12/26 05:23:22;;;;;;;28.75;13.65;;;;;;;6.14;64.37;99928.72;3127464;28;20055;-67
2023/12/26 05:24:54;;;;;;;28.23;13.98;;;;;;;6.17;64.23;99935.56;3127342;28;20539;-67
2023/12/26 05:26:25;;;;;;;32.75;13.25;;;;;;;6.16;64.41;99936.44;3127282;28;20068;-66
2023/12/26 05:27:58;;;;;;;32.30;15.95;;;;;;;6.18;64.29;99942.41;3127471;28;20049;-67
2023/12/26 05:29:29;;;;;;;;;;;;;;;6.03;64.39;99938.47;3127855;28;20067;-67
2023/12/26 05:31:03;;;;;;;30.90;14.20;;;;;;;6.06;64.48;99946.19;3127439;28;19964;-66
2023/12/26 05:32:34;;;;;;;32.97;15.57;;;;;;;6.04;64.52;99942.78;3127467;28;20049;-67
2023/12/26 05:34:07;;;;;;;28.02;12.27;;;;;;;6.04;64.56;99945.34;3127363;28;20434;-67
2023/12/26 05:35:39;;;;;;;27.00;12.38;;;;;;;6.04;64.49;99947.09;3127452;28;20057;-66
2023/12/26 05:37:10;;;;;;;33.67;14.10;;;;;;;6.04;64.51;99945.34;3127545;28;20053;-66
2023/12/26 05:38:42;;;;;;;29.48;12.10;;;;;;;6.04;64.57;99950.53;3127265;28;20059;-67
2023/12/26 05:40:13;;;;;;;34.60;14.43;;;;;;;6.05;64.53;99952.22;3127300;28;20057;-67
2023/12/26 05:41:45;;;;;;;34.67;14.55;;;;;;;6.04;64.53;99950.53;3126977;28;20442;-67
2023/12/26 05:43:17;;;;;;;31.73;14.30;;;;;;;6.07;64.43;99952.19;3127019;28;20126;-66
2023/12/26 05:44:49;;;;;;;32.30;14.63;;;;;;;6.05;64.53;99947.03;3127457;28;20080;-66
2023/12/26 05:46:20;;;;;;;32.53;14.43;;;;;;;5.99;64.61;99952.38;3127237;28;20059;-67
2023/12/26 05:47:52;;;;;;;29.73;14.05;;;;;;;5.98;64.69;99961.00;3127284;28;20052;-67
2023/12/26 05:49:23;;;;;;;28.30;13.65;;;;;;;5.97;64.75;99961.03;3127010;28;20130;-67
2023/12/26 05:50:55;;;;;;;31.05;14.52;;;;;;;5.95;64.78;99960.25;3127100;28;20737;-67
2023/12/26 05:52:26;;;;;;;31.10;15.15;;;;;;;5.97;64.90;99964.47;3126947;28;20130;-67
2023/12/26 05:53:58;;;;;;;32.80;13.75;;;;;;;5.97;64.73;99963.63;3127075;28;20441;-67
2023/12/26 05:55:29;;;;;;;36.78;15.68;;;;;;;5.98;64.93;99961.00;3127112;28;20099;-67
2023/12/26 05:57:00;;;;;;;33.00;15.13;;;;;;;5.96;64.91;99957.59;3127163;28;20285;-68
2023/12/26 05:58:34;;;;;;;31.58;15.23;;;;;;;6.01;64.80;99966.09;3126993;28;20053;-67
2023/12/26 06:00:06;;;;;;;32.92;13.90;;;;;;;5.99;64.83;99973.03;3127201;28;20057;-67
2023/12/26 06:01:38;;;;;;;36.28;18.98;;;;;;;5.98;64.72;99980.84;3126995;28;20056;-67
2023/12/26 06:03:09;;;;;;;36.03;19.73;;;;;;;5.95;64.81;99986.09;3127151;28;20057;-67
2023/12/26 06:04:42;;;;;;;35.00;15.10;;;;;;;5.52;64.97;99935.34;3126914;28;20608;-68
2023/12/26 06:06:13;;;;;;;28.33;13.30;;;;;;;5.81;64.98;99988.94;3127373;28;20148;-67
2023/12/26 06:07:45;;;;;;;30.35;13.50;;;;;;;5.76;65.28;99989.03;3126969;28;20121;-68
2023/12/26 06:09:16;;;;;;;24.98;12.70;;;;;;;5.73;65.29;99988.25;3127114;28;20068;-67
2023/12/26 06:10:48;;;;;;;28.83;13.63;;;;;;;5.72;65.42;99996.91;3127400;28;20102;-67
2023/12/26 06:12:19;;;;;;;26.33;11.65;;;;;;;5.72;65.35;99995.16;3133959;28;20530;-68
2023/12/26 06:13:52;;;;;;;29.95;12.20;;;;;;;5.71;65.58;99993.47;3126731;28;20194;-67
2023/12/26 06:15:23;;;;;;;29.02;12.82;;;;;;;5.65;65.55;99991.03;3126960;28;20583;-67
2023/12/26 06:16:57;;;;;;;27.58;13.52;;;;;;;5.63;65.50;99998.81;3127140;28;20048;-67
2023/12/26 06:18:28;;;;;;;;;;;;;;;5.45;65.77;99997.47;3127706;28;20056;-66
2023/12/26 06:19:59;;;;;;;37.85;14.07;;;;;;;5.49;65.98;99998.25;3127087;28;19990;-67
2023/12/26 06:21:31;;;;;;;31.65;14.95;;;;;;;5.55;66.02;100003.28;3126848;28;20632;-66
2023/12/26 06:23:03;;;;;;;34.10;14.98;;;;;;;5.47;66.01;99980.22;3127063;28;20132;-66
2023/12/26 06:24:34;;;;;;;37.05;15.38;;;;;;;5.69;65.80;100006.41;3126874;28;20052;-66
2023/12/26 06:26:05;;;;;;;37.28;16.77;;;;;;;5.77;65.70;99998.50;3127079;28;20045;-66
2023/12/26 06:27:37;;;;;;;43.65;19.38;;;;;;;5.83;65.62;100003.53;3127173;28;20067;-66
2023/12/26 06:29:09;;;;;;;41.45;19.38;;;;;;;5.94;65.38;100008.47;3126652;28;20550;-65
2023/12/26 06:30:41;;;;;;;45.03;20.02;;;;;;;6.01;65.18;100009.22;3127057;28;20135;-67
2023/12/26 06:32:12;;;;;;;43.53;18.52;;;;;;;6.09;65.03;100009.84;3126829;28;20486;-66
2023/12/26 06:33:44;;;;;;;51.97;22.67;;;;;;;6.19;65.04;100015.69;3126775;28;20053;-66
2023/12/26 06:35:15;;;;;;;38.60;19.92;;;;;;;6.26;64.75;100009.47;3126812;28;20049;-66
2023/12/26 06:36:47;;;;;;;47.28;21.27;;;;;;;6.35;64.53;100014.41;3126974;28;20482;-66
2023/12/26 06:38:18;;;;;;;45.33;20.80;;;;;;;6.43;64.38;100025.44;3126524;28;20434;-67
2023/12/26 06:39:50;;;;;;;47.78;21.13;;;;;;;6.44;64.18;100021.94;3127195;28;20150;-67
2023/12/26 06:41:21;;;;;;;54.38;23.27;;;;;;;6.47;63.98;100023.63;3126921;28;20057;-66
2023/12/26 06:42:52;;;;;;;47.53;21.45;;;;;;;6.52;63.71;100025.19;3126876;28;20056;-67
2023/12/26 06:44:25;;;;;;;40.35;19.27;;;;;;;6.58;63.64;100035.41;3126913;28;20056;-67
2023/12/26 06:45:57;;;;;;;41.28;18.63;;;;;;;6.51;63.57;100020.94;3126922;28;20513;-66
2023/12/26 06:47:28;;;;;;;41.78;17.95;;;;;;;6.61;63.34;100034.47;3126998;28;20061;-68
2023/12/26 06:48:59;;;;;;;40.22;16.50;;;;;;;6.59;63.19;100031.91;3126917;28;20052;-66
2023/12/26 06:50:30;;;;;;;37.55;15.82;;;;;;;6.57;63.18;100032.88;3126613;28;20737;-68
2023/12/26 06:52:02;;;;;;;30.20;14.15;;;;;;;6.56;63.15;100031.97;3126775;28;20142;-66
2023/12/26 06:53:34;;;;;;;38.00;16.10;;;;;;;6.58;63.14;100035.41;3126837;28;20437;-66
2023/12/26 06:55:06;;;;;;;36.13;16.38;;;;;;;6.64;62.84;100028.38;3126907;28;20076;-67
2023/12/26 06:56:37;;;;;;;39.63;16.70;;;;;;;6.71;62.96;100035.94;3126634;28;20433;-67
2023/12/26 06:58:09;;;;;;;39.90;15.77;;;;;;;6.79;62.64;100039.19;3126663;28;20791;-67
2023/12/26 06:59:42;;;;;;;40.38;15.88;;;;;;;6.89;62.50;100039.81;3126823;28;20141;-66
2023/12/26 07:01:14;;;;;;;44.55;16.40;;;;;;;6.96;62.32;100041.34;3127416;28;20510;-66
2023/12/26 07:02:44;;;;;;;33.75;15.88;;;;;;;7.08;62.03;100045.34;3129365;28;20126;-66
2023/12/26 07:04:16;;;;;;;39.20;15.50;;;;;;;7.15;61.68;100036.50;3129226;28;20052;-66
2023/12/26 07:05:47;;;;;;;33.75;15.65;;;;;;;7.19;61.51;100034.69;3129283;28;20065;-67
2023/12/26 07:07:19;;;;;;;34.25;15.60;;;;;;;7.24;61.38;100037.97;3128983;28;20198;-66